Skip Navigation LinksHome page > Tools > METAR decoder Skip Navigation Links

METAR decoder

Settings

METAR

Chicago O'Hare Intl, Chicago

For information only: do not use for flight planning or navigation.
Latest weather
Observation time Saturday, July 23, 2016 8:51 AM CDT
Local time Saturday, July 23, 2016 9:55 AM CDT
Flight conditions Visual Meteorological Conditions
Winds
Wind direction variable
Wind speed 3 mph
Visibility 10 mi.
Sky condition
Ceiling 25,000 ft. broken clouds
Cloud layer few clouds 3,200 ft.
Cloud layer scattered clouds 4,700 ft.
Cloud layer broken clouds 25,000 ft.
Temperature 84°F
Dewpoint 76°F
Altimeter 29.98 in.Hg
Derived measurements
Relative humidity 77%
Heat index 93°F
Density altitude 2606 ft.
Sea-level pressure 29.96 in.Hg
Remarks
Automated weather observing station with precipitation discriminator.
METAR KORD 231351Z VRB03KT 10SM FEW032 SCT047 BKN250 29/24 A2998 RMK AO2 SLP145 T02890244

InnerDrive.Weather 4.0.5722.1 Release CLR 4.0.30319.34209
Copyright ©2015 Inner Drive Technology. All rights reserved. Portions Copyright ©1986-2015 David Braverman.

Find weather

Site navigation


Skip Navigation Links

Place info

Page info

PayPal - The safer, easier way to pay online!

Return home.

Copyright ©2016 Inner Drive Technology. Purveyors of fine, hand-crafted computer software. Page printed 2016-07-23T14:55:56 UTC.